createdAt,value
2023-02-21T00:01:18.360Z,8.6
2023-02-21T00:02:20.926Z,8.6
2023-02-21T00:04:22.854Z,8.6
2023-02-21T00:06:24.847Z,8.6
2023-02-21T00:08:26.840Z,8.6
2023-02-21T00:10:31.848Z,8.6
2023-02-21T00:12:33.820Z,8.5
2023-02-21T00:14:35.789Z,8.5
2023-02-21T00:16:37.842Z,8.5
2023-02-21T00:18:39.737Z,8.5
2023-02-21T00:20:41.710Z,8.5
2023-02-21T00:22:43.677Z,8.5
2023-02-21T00:24:48.719Z,8.5
2023-02-21T00:26:50.713Z,8.5
2023-02-21T00:28:52.680Z,8.5
2023-02-21T00:34:58.618Z,8.5
2023-02-21T00:37:00.602Z,8.5
2023-02-21T00:39:05.633Z,8.5
2023-02-21T00:41:07.593Z,8.5
2023-02-21T00:43:09.568Z,8.5
2023-02-21T00:47:13.538Z,8.5
2023-02-21T00:49:15.505Z,8.5
2023-02-21T00:51:17.639Z,8.4
2023-02-21T00:53:22.535Z,8.4
2023-02-21T00:55:24.496Z,8.4
2023-02-21T00:57:26.517Z,8.4
2023-02-21T00:59:49.158Z,8.4
2023-02-21T01:01:51.150Z,8.4
2023-02-21T01:03:53.125Z,8.4
2023-02-21T01:05:58.137Z,8.4
2023-02-21T01:08:00.174Z,8.4
2023-02-21T01:10:02.109Z,8.4
2023-02-21T01:12:04.069Z,8.4
2023-02-21T01:14:06.047Z,8.4
2023-02-21T01:16:08.140Z,8.4
2023-02-21T01:18:10.010Z,8.4
2023-02-21T01:20:15.059Z,8.4
2023-02-21T01:24:19.006Z,8.4
2023-02-21T01:26:20.980Z,8.4
2023-02-21T01:28:22.978Z,8.4
2023-02-21T01:30:25.038Z,8.4
2023-02-21T01:32:26.960Z,8.4
2023-02-21T01:34:31.968Z,8.4
2023-02-21T01:36:33.933Z,8.4
2023-02-21T01:38:35.953Z,8.4
2023-02-21T01:40:37.898Z,8.4
2023-02-21T01:42:39.876Z,8.4
2023-02-21T01:44:41.847Z,8.4
2023-02-21T01:48:48.890Z,8.4
2023-02-21T01:50:50.865Z,8.4
2023-02-21T01:52:52.840Z,8.4
2023-02-21T01:55:57.362Z,8.4
2023-02-21T01:57:59.322Z,8.4
2023-02-21T02:00:01.318Z,8.4
2023-02-21T02:02:06.336Z,8.4
2023-02-21T02:04:08.320Z,8.4
2023-02-21T02:06:10.287Z,8.4
2023-02-21T02:08:12.292Z,8.4
2023-02-21T02:10:14.264Z,8.4
2023-02-21T02:12:16.237Z,8.5
2023-02-21T02:14:18.208Z,8.4
2023-02-21T02:16:23.292Z,8.4
2023-02-21T02:18:25.270Z,8.5
2023-02-21T02:20:27.237Z,8.4
2023-02-21T02:22:29.218Z,8.4
2023-02-21T02:26:33.194Z,8.4
2023-02-21T02:28:35.159Z,8.4
2023-02-21T02:30:40.247Z,8.4
2023-02-21T02:32:42.145Z,8.4
2023-02-21T02:38:48.065Z,8.4
2023-02-21T02:40:50.027Z,8.4
2023-02-21T02:42:52.024Z,8.4
2023-02-21T02:46:59.034Z,8.4
2023-02-21T02:49:01.004Z,8.4
2023-02-21T02:54:07.474Z,8.4
2023-02-21T02:56:09.431Z,8.4
2023-02-21T03:02:18.398Z,8.4
2023-02-21T03:04:20.374Z,8.4
2023-02-21T03:06:22.362Z,8.4
2023-02-21T03:08:24.324Z,8.3
2023-02-21T03:12:31.318Z,8.3
2023-02-21T03:18:37.286Z,8.4
2023-02-21T03:22:41.232Z,8.4
2023-02-21T03:26:48.243Z,8.4
2023-02-21T03:34:56.155Z,8.3
2023-02-21T03:36:58.100Z,8.3
2023-02-21T03:39:00.116Z,8.3
2023-02-21T03:41:05.114Z,8.4
2023-02-21T03:43:07.123Z,8.4
2023-02-21T03:45:09.051Z,8.4
2023-02-21T03:52:17.494Z,8.3
2023-02-21T04:00:28.484Z,8.3
2023-02-21T04:02:30.453Z,8.3
2023-02-21T04:04:32.418Z,8.3
2023-02-21T04:06:34.380Z,8.2
2023-02-21T04:08:39.426Z,8.3
2023-02-21T04:10:51.727Z,8.2
2023-02-21T04:12:43.386Z,8.2
2023-02-21T04:14:45.342Z,8.2
2023-02-21T04:16:47.331Z,8.2
2023-02-21T04:18:49.298Z,8.3
2023-02-21T04:20:51.306Z,8.3
2023-02-21T04:23:03.252Z,8.2
2023-02-21T04:24:58.285Z,8.2
2023-02-21T04:27:00.267Z,8.2
2023-02-21T04:29:02.235Z,8.2
2023-02-21T04:31:04.207Z,8.2
2023-02-21T04:35:08.188Z,8.2
2023-02-21T04:37:13.194Z,8.2
2023-02-21T04:41:17.301Z,8.2
2023-02-21T04:43:33.930Z,8.2
2023-02-21T04:45:35.890Z,8.2
2023-02-21T04:51:44.875Z,8.2
2023-02-21T04:53:46.863Z,8.2
2023-02-21T04:57:50.806Z,8.2
2023-02-21T05:01:54.745Z,8.2
2023-02-21T05:03:59.882Z,8.2
2023-02-21T05:08:03.757Z,8.2
2023-02-21T05:10:05.736Z,8.2
2023-02-21T05:12:07.716Z,8.2
2023-02-21T05:20:18.664Z,8.1
2023-02-21T05:26:24.561Z,8.1
2023-02-21T05:28:26.547Z,8.1
2023-02-21T05:30:28.640Z,8.1
2023-02-21T05:32:33.544Z,8.1
2023-02-21T05:34:35.527Z,8.1
2023-02-21T05:36:37.513Z,8.1
2023-02-21T05:37:40.012Z,8.1
2023-02-21T05:39:41.978Z,8.1
2023-02-21T05:41:43.972Z,8.1
2023-02-21T05:43:45.948Z,8.1
2023-02-21T05:49:56.430Z,8
2023-02-21T05:54:00.371Z,8
2023-02-21T05:56:02.326Z,8
2023-02-21T05:58:04.361Z,8
2023-02-21T06:00:09.333Z,8
2023-02-21T06:02:11.371Z,8
2023-02-21T06:06:15.105Z,8
2023-02-21T06:08:17.060Z,8
2023-02-21T06:10:19.066Z,8
2023-02-21T06:12:21.015Z,8
2023-02-21T06:14:26.062Z,8
2023-02-21T06:16:28.025Z,8
2023-02-21T06:18:29.980Z,8
2023-02-21T06:20:31.980Z,8
2023-02-21T06:22:33.927Z,8
2023-02-21T06:24:35.898Z,8
2023-02-21T06:26:37.915Z,8
2023-02-21T06:30:44.893Z,8
2023-02-21T06:32:46.824Z,8
2023-02-21T06:33:49.361Z,8
2023-02-21T06:35:51.338Z,8
2023-02-21T06:37:53.291Z,8
2023-02-21T06:39:55.273Z,8
2023-02-21T06:42:00.303Z,8
2023-02-21T06:44:02.267Z,8
2023-02-21T06:46:04.271Z,8
2023-02-21T06:48:06.202Z,7.9
2023-02-21T06:50:10.231Z,7.9
2023-02-21T06:52:10.191Z,7.9
2023-02-21T06:56:17.138Z,7.9
2023-02-21T07:10:33.970Z,7.9
2023-02-21T07:12:35.949Z,7.9
2023-02-21T07:14:37.904Z,7.9
2023-02-21T07:16:39.867Z,7.9
2023-02-21T07:18:41.830Z,7.9
2023-02-21T07:22:45.820Z,7.9
2023-02-21T07:24:50.846Z,7.9
2023-02-21T07:29:57.302Z,7.9
2023-02-21T07:31:59.504Z,7.9
2023-02-21T07:34:01.256Z,7.9
2023-02-21T07:36:03.198Z,7.8
2023-02-21T07:38:08.264Z,7.8
2023-02-21T07:40:10.212Z,7.8
2023-02-21T07:42:13.403Z,7.8
2023-02-21T07:46:16.123Z,7.8
2023-02-21T07:48:18.169Z,7.9
2023-02-21T07:50:20.030Z,7.9
2023-02-21T07:52:25.034Z,7.9
2023-02-21T07:54:26.997Z,7.9
2023-02-21T08:04:36.857Z,7.8
2023-02-21T08:12:47.706Z,8
2023-02-21T08:14:49.685Z,8
2023-02-21T08:16:51.649Z,8
2023-02-21T08:18:53.602Z,8
2023-02-21T08:20:58.613Z,8
2023-02-21T08:23:00.621Z,8
2023-02-21T08:25:02.545Z,8
2023-02-21T08:27:25.214Z,8
2023-02-21T08:29:27.203Z,8
2023-02-21T08:31:29.196Z,7.9
2023-02-21T08:33:34.205Z,8
2023-02-21T08:35:36.121Z,8
2023-02-21T08:37:38.093Z,8
2023-02-21T08:53:56.888Z,8
2023-02-21T08:55:58.840Z,8.1
2023-02-21T08:58:01.267Z,8
2023-02-21T09:00:02.807Z,8.1
2023-02-21T09:02:07.853Z,8.1
2023-02-21T09:04:09.792Z,8.1
2023-02-21T09:08:13.816Z,8.2
2023-02-21T09:12:17.667Z,8.2
2023-02-21T09:14:19.618Z,8.2
2023-02-21T09:16:24.699Z,8.1
2023-02-21T09:18:26.630Z,8.1
2023-02-21T09:20:28.575Z,8.2
2023-02-21T09:21:31.092Z,8.2
2023-02-21T09:23:33.089Z,8.2
2023-02-21T09:25:35.052Z,8.2
2023-02-21T09:27:37.016Z,8.3
2023-02-21T09:33:45.977Z,8.4
2023-02-21T09:35:48.158Z,8.5
2023-02-21T09:37:49.918Z,8.8
2023-02-21T09:39:51.871Z,8.7
2023-02-21T09:41:53.884Z,8.7
2023-02-21T09:43:58.881Z,8.5
2023-02-21T09:46:00.932Z,8.4
2023-02-21T09:48:02.830Z,8.4
2023-02-21T09:50:04.782Z,8.4
2023-02-21T09:52:06.758Z,8.3
2023-02-21T09:54:08.715Z,8.4
2023-02-21T09:56:10.699Z,8.4
2023-02-21T09:58:15.732Z,8.4
2023-02-21T10:00:17.683Z,8.4
2023-02-21T10:02:19.648Z,8.4
2023-02-21T10:04:21.728Z,8.4
2023-02-21T10:06:23.601Z,8.5
2023-02-21T10:08:25.571Z,8.5
2023-02-21T10:10:27.538Z,8.4
2023-02-21T10:12:32.556Z,8.5
2023-02-21T10:14:34.537Z,8.6
2023-02-21T10:16:36.601Z,8.6
2023-02-21T10:17:39.012Z,8.6
2023-02-21T10:25:49.946Z,8.6
2023-02-21T10:33:57.833Z,8.8
2023-02-21T10:35:59.794Z,8.9
2023-02-21T10:38:01.787Z,8.9
2023-02-21T10:40:09.085Z,8.8
2023-02-21T10:42:08.809Z,8.8
2023-02-21T10:44:10.742Z,8.8
2023-02-21T10:48:14.678Z,8.8
2023-02-21T10:50:16.642Z,8.8
2023-02-21T10:52:18.640Z,8.9
2023-02-21T10:54:23.708Z,8.8
2023-02-21T10:56:25.670Z,8.8
2023-02-21T10:58:27.636Z,8.8
2023-02-21T11:00:29.622Z,8.9
2023-02-21T11:02:31.628Z,8.8
2023-02-21T11:04:33.565Z,8.9
2023-02-21T11:06:35.540Z,9
2023-02-21T11:08:40.573Z,9
2023-02-21T11:10:42.550Z,8.9
2023-02-21T11:12:44.537Z,8.8
2023-02-21T11:13:47.042Z,8.8
2023-02-21T11:15:49.028Z,8.8
2023-02-21T11:17:50.984Z,8.8
2023-02-21T11:19:52.949Z,8.7
2023-02-21T11:21:57.989Z,8.8
2023-02-21T11:23:59.973Z,8.7
2023-02-21T11:26:01.957Z,8.8
2023-02-21T11:28:03.952Z,8.8
2023-02-21T11:30:05.964Z,8.8
2023-02-21T11:32:07.906Z,8.9
2023-02-21T11:34:09.869Z,8.9
2023-02-21T11:36:14.889Z,8.9
2023-02-21T11:38:17.011Z,8.9
2023-02-21T11:40:18.843Z,9
2023-02-21T11:42:22.358Z,9
2023-02-21T11:46:26.376Z,9.1
2023-02-21T11:48:28.237Z,9
2023-02-21T11:50:33.279Z,8.9
2023-02-21T11:52:35.255Z,8.9
2023-02-21T11:54:37.229Z,8.8
2023-02-21T11:56:39.195Z,8.8
2023-02-21T11:58:41.194Z,8.7
2023-02-21T12:00:43.143Z,8.7
2023-02-21T12:02:45.157Z,8.7
2023-02-21T12:04:50.172Z,8.7
2023-02-21T12:06:52.126Z,8.7
2023-02-21T12:08:54.114Z,8.8
2023-02-21T12:11:17.282Z,8.8
2023-02-21T12:13:18.982Z,8.8
2023-02-21T12:15:20.960Z,8.9
2023-02-21T12:17:25.993Z,8.9
2023-02-21T12:19:27.996Z,8.9
2023-02-21T12:21:29.954Z,8.9
2023-02-21T12:23:31.929Z,8.9
2023-02-21T12:25:33.898Z,8.8
2023-02-21T12:27:35.890Z,8.8
2023-02-21T12:29:37.866Z,8.9
2023-02-21T12:31:43.085Z,8.8
2023-02-21T12:33:44.857Z,8.9
2023-02-21T12:35:46.858Z,8.8
2023-02-21T12:39:50.849Z,8.8
2023-02-21T12:41:52.779Z,8.8
2023-02-21T12:43:54.752Z,8.8
2023-02-21T12:45:59.831Z,8.8
2023-02-21T12:48:01.766Z,8.8
2023-02-21T12:50:03.742Z,8.8
2023-02-21T12:52:05.710Z,8.8
2023-02-21T12:54:07.688Z,8.9
2023-02-21T12:56:09.662Z,8.9
2023-02-21T12:58:11.693Z,9
2023-02-21T13:00:16.683Z,8.9
2023-02-21T13:02:18.665Z,8.9
2023-02-21T13:04:20.629Z,8.9
2023-02-21T13:05:23.157Z,9
2023-02-21T13:07:25.123Z,9
2023-02-21T13:09:27.096Z,9
2023-02-21T13:13:34.116Z,8.9
2023-02-21T13:15:36.053Z,8.9
2023-02-21T13:17:38.012Z,8.9
2023-02-21T13:19:40.004Z,8.9
2023-02-21T13:21:41.957Z,8.9
2023-02-21T13:23:43.938Z,8.9
2023-02-21T13:25:45.912Z,8.9
2023-02-21T13:27:50.949Z,8.9
2023-02-21T13:29:52.941Z,9
2023-02-21T13:31:54.939Z,9
2023-02-21T13:40:02.804Z,9
2023-02-21T13:50:15.798Z,9
2023-02-21T13:56:24.754Z,9
2023-02-21T13:58:26.725Z,9
2023-02-21T14:00:28.709Z,9.1
2023-02-21T14:01:31.216Z,9
2023-02-21T14:03:33.199Z,9
2023-02-21T14:05:35.180Z,9.1
2023-02-21T14:07:37.146Z,9.1
2023-02-21T14:09:42.184Z,9
2023-02-21T14:11:44.146Z,9
2023-02-21T14:13:46.108Z,9.1
2023-02-21T14:15:48.094Z,9.1
2023-02-21T14:17:50.060Z,9.1
2023-02-21T14:19:52.030Z,9.1
2023-02-21T14:21:54.014Z,9.1
2023-02-21T14:23:59.041Z,9.1
2023-02-21T14:26:01.043Z,9.1
2023-02-21T14:28:05.310Z,9.2
2023-02-21T14:30:05.109Z,9.1
2023-02-21T14:32:07.056Z,9.2
2023-02-21T14:34:08.922Z,9.2
2023-02-21T14:36:10.909Z,9.1
2023-02-21T14:38:15.953Z,9.1
2023-02-21T14:40:17.933Z,9.2
2023-02-21T14:42:19.909Z,9.2
2023-02-21T14:44:21.859Z,9.2
2023-02-21T14:48:25.837Z,9.1
2023-02-21T14:50:27.809Z,9.1
2023-02-21T14:52:32.853Z,9.1
2023-02-21T14:54:34.799Z,9.1
2023-02-21T14:56:36.779Z,9.1
2023-02-21T14:57:39.302Z,9
2023-02-21T14:59:41.274Z,9
2023-02-21T15:05:50.292Z,9
2023-02-21T15:11:56.180Z,8.9
2023-02-21T15:16:00.132Z,8.9
2023-02-21T15:18:02.113Z,8.9
2023-02-21T15:20:07.141Z,8.8
2023-02-21T15:22:09.114Z,8.9
2023-02-21T15:24:11.109Z,8.8
2023-02-21T15:26:13.075Z,8.9
2023-02-21T15:28:15.063Z,8.8
2023-02-21T15:30:17.094Z,8.9
2023-02-21T15:32:19.075Z,8.8
2023-02-21T15:34:24.033Z,8.8
2023-02-21T15:36:25.990Z,8.8
2023-02-21T15:38:27.991Z,8.8
2023-02-21T15:40:29.951Z,8.7
2023-02-21T15:42:31.921Z,8.7
2023-02-21T15:44:33.882Z,8.7
2023-02-21T15:46:35.862Z,8.7
2023-02-21T15:48:40.892Z,8.7
2023-02-21T15:50:42.855Z,8.7
2023-02-21T15:52:44.848Z,8.6
2023-02-21T15:55:01.469Z,8.6
2023-02-21T15:59:05.386Z,8.6
2023-02-21T16:01:10.468Z,8.5
2023-02-21T16:03:12.400Z,8.5
2023-02-21T16:11:20.297Z,8.4
2023-02-21T16:13:22.282Z,8.4
2023-02-21T16:15:27.433Z,8.4
2023-02-21T16:19:31.262Z,8.4
2023-02-21T16:21:33.229Z,8.4
2023-02-21T16:23:35.218Z,8.4
2023-02-21T16:25:37.197Z,8.4
2023-02-21T16:27:39.157Z,8.4
2023-02-21T16:29:44.182Z,8.4
2023-02-21T16:31:46.264Z,8.4
2023-02-21T16:33:48.130Z,8.4
2023-02-21T16:35:50.113Z,8.4
2023-02-21T16:39:54.038Z,8.4
2023-02-21T16:44:01.065Z,8.3
2023-02-21T16:46:03.061Z,8.4
2023-02-21T16:48:05.032Z,8.3
2023-02-21T16:49:07.499Z,8.3
2023-02-21T16:51:09.478Z,8.3
2023-02-21T16:53:11.463Z,8.3
2023-02-21T16:55:13.422Z,8.3
2023-02-21T16:57:18.453Z,8.3
2023-02-21T17:01:22.411Z,8.3
2023-02-21T17:03:24.432Z,8.3
2023-02-21T17:07:28.310Z,8.3
2023-02-21T17:09:30.285Z,8.2
2023-02-21T17:11:35.396Z,8.3
2023-02-21T17:13:37.296Z,8.2
2023-02-21T17:15:39.317Z,8.2
2023-02-21T17:17:42.901Z,8.2
2023-02-21T17:21:45.166Z,8.2
2023-02-21T17:23:47.143Z,8.2
2023-02-21T17:25:52.171Z,8.2
2023-02-21T17:27:54.143Z,8.2
2023-02-21T17:29:56.109Z,8.2
2023-02-21T17:36:03.533Z,8.3
2023-02-21T17:44:14.465Z,8.2
2023-02-21T17:45:17.034Z,8.2
2023-02-21T17:47:18.954Z,8.2
2023-02-21T17:49:20.931Z,8.2
2023-02-21T17:51:22.901Z,8.2
2023-02-21T17:53:27.942Z,8.2
2023-02-21T17:57:31.899Z,8.2
2023-02-21T17:59:33.876Z,8.2
2023-02-21T18:01:35.865Z,8.2
2023-02-21T18:03:37.822Z,8.2
2023-02-21T18:17:54.678Z,8.2
2023-02-21T18:19:56.658Z,8.2
2023-02-21T18:22:01.686Z,8.2
2023-02-21T18:24:03.684Z,8.2
2023-02-21T18:26:05.634Z,8.2
2023-02-21T18:28:11.898Z,8.2
2023-02-21T18:34:13.521Z,8.2
2023-02-21T18:38:20.588Z,8.3
2023-02-21T18:40:22.511Z,8.2
2023-02-21T18:41:25.026Z,8.2
2023-02-21T18:43:27.067Z,8.2
2023-02-21T18:45:28.962Z,8.2
2023-02-21T18:47:30.966Z,8.2
2023-02-21T18:49:35.971Z,8.2
2023-02-21T18:51:37.968Z,8.2
2023-02-21T18:53:40.129Z,8.2
2023-02-21T18:55:41.904Z,8.2
2023-02-21T18:57:43.890Z,8.2
2023-02-21T18:59:45.931Z,8.2
2023-02-21T19:05:54.866Z,8.1
2023-02-21T19:07:56.853Z,8.1
2023-02-21T19:09:58.804Z,8.1
2023-02-21T19:24:15.686Z,8
2023-02-21T19:26:17.658Z,8
2023-02-21T19:32:26.715Z,8
2023-02-21T19:34:28.605Z,7.9
2023-02-21T19:36:30.596Z,7.9
2023-02-21T19:38:49.498Z,7.9
2023-02-21T19:40:56.687Z,7.9
2023-02-21T19:42:58.674Z,7.9
2023-02-21T19:45:03.696Z,7.9
2023-02-21T19:47:05.671Z,7.8
2023-02-21T19:49:07.646Z,7.8
2023-02-21T19:51:09.615Z,7.9
2023-02-21T19:53:11.580Z,7.8
2023-02-21T19:55:13.567Z,7.8
2023-02-21T19:57:15.530Z,7.9
2023-02-21T19:59:20.613Z,7.8
2023-02-21T20:01:22.590Z,7.8
2023-02-21T20:03:24.517Z,7.8
2023-02-21T20:05:26.501Z,7.8
2023-02-21T20:07:28.489Z,7.8
2023-02-21T20:09:30.449Z,7.9
2023-02-21T20:11:32.424Z,7.8
2023-02-21T20:13:37.457Z,7.8
2023-02-21T20:15:39.584Z,7.8
2023-02-21T20:19:43.385Z,7.9
2023-02-21T20:21:45.345Z,7.8
2023-02-21T20:23:47.344Z,7.9
2023-02-21T20:25:49.277Z,7.8
2023-02-21T20:27:54.324Z,7.8
2023-02-21T20:29:56.368Z,7.9
2023-02-21T20:31:58.302Z,7.8
2023-02-21T20:33:00.787Z,7.8
2023-02-21T20:35:02.754Z,7.8
2023-02-21T20:39:06.671Z,7.8
2023-02-21T20:41:11.835Z,7.8
2023-02-21T20:43:13.684Z,7.8
2023-02-21T20:45:15.656Z,7.8
2023-02-21T20:47:17.602Z,7.8
2023-02-21T20:49:19.580Z,7.8
2023-02-21T20:51:21.559Z,7.8
2023-02-21T20:53:23.523Z,7.8
2023-02-21T20:55:28.546Z,7.8
2023-02-21T20:57:30.532Z,7.8
2023-02-21T20:59:32.491Z,7.8
2023-02-21T21:03:36.434Z,7.8
2023-02-21T21:05:38.408Z,7.8
2023-02-21T21:07:40.369Z,7.8
2023-02-21T21:09:45.408Z,7.8
2023-02-21T21:11:47.377Z,7.7
2023-02-21T21:13:49.336Z,7.8
2023-02-21T21:15:51.347Z,7.8
2023-02-21T21:17:53.284Z,7.8
2023-02-21T21:19:55.252Z,7.8
2023-02-21T21:24:02.260Z,7.8
2023-02-21T21:26:04.229Z,7.8
2023-02-21T21:28:06.172Z,7.8
2023-02-21T21:29:08.702Z,7.8
2023-02-21T21:31:10.686Z,7.7
2023-02-21T21:33:12.629Z,7.7
2023-02-21T21:35:14.596Z,7.8
2023-02-21T21:37:19.667Z,7.7
2023-02-21T21:41:23.552Z,7.7
2023-02-21T21:43:25.542Z,7.7
2023-02-21T21:45:27.559Z,7.7
2023-02-21T21:49:31.436Z,7.7
2023-02-21T21:51:36.471Z,7.7
2023-02-21T21:53:38.439Z,7.7
2023-02-21T21:55:40.389Z,7.7
2023-02-21T21:57:42.382Z,7.7
2023-02-21T21:59:44.366Z,7.7
2023-02-21T22:01:46.349Z,7.7
2023-02-21T22:03:48.279Z,7.7
2023-02-21T22:05:53.301Z,7.7
2023-02-21T22:07:55.269Z,7.7
2023-02-21T22:16:03.191Z,7.6
2023-02-21T22:18:05.111Z,7.6
2023-02-21T22:20:10.094Z,7.6
2023-02-21T22:24:14.038Z,7.6
2023-02-21T22:25:16.540Z,7.6
2023-02-21T22:29:20.472Z,7.6
2023-02-21T22:31:22.500Z,7.6
2023-02-21T22:35:29.405Z,7.6
2023-02-21T22:37:31.371Z,7.5
2023-02-21T22:39:33.334Z,7.5
2023-02-21T22:41:35.306Z,7.6
2023-02-21T22:47:44.266Z,7.6
2023-02-21T22:49:46.224Z,7.5
2023-02-21T22:51:48.224Z,7.5
2023-02-21T22:53:50.178Z,7.5
2023-02-21T22:55:52.730Z,7.5
2023-02-21T22:57:54.121Z,7.5
2023-02-21T22:59:56.068Z,7.5
2023-02-21T23:02:01.108Z,7.5
2023-02-21T23:04:03.056Z,7.5
2023-02-21T23:08:07.007Z,7.5
2023-02-21T23:10:08.976Z,7.5
2023-02-21T23:16:17.998Z,7.5
2023-02-21T23:18:19.896Z,7.5
2023-02-21T23:22:44.594Z,7.5
2023-02-21T23:24:48.095Z,7.5
2023-02-21T23:26:50.028Z,7.5
2023-02-21T23:28:55.029Z,7.5
2023-02-21T23:30:57.004Z,7.5
2023-02-21T23:32:58.978Z,7.5
2023-02-21T23:35:00.953Z,7.4
2023-02-21T23:37:02.908Z,7.5
2023-02-21T23:39:04.867Z,7.4
2023-02-21T23:41:06.864Z,7.4
2023-02-21T23:43:11.879Z,7.4
2023-02-21T23:45:13.871Z,7.4
2023-02-21T23:47:15.813Z,7.4
2023-02-21T23:49:17.812Z,7.4
2023-02-21T23:51:19.762Z,7.4
2023-02-21T23:53:21.712Z,7.4
2023-02-21T23:55:23.677Z,7.4
2023-02-21T23:57:28.707Z,7.4
2023-02-21T23:59:30.691Z,7.4
